createdAt,value
2022-09-03T00:00:39.758Z,11.80
2022-09-03T00:03:23.149Z,11.80
2022-09-03T00:06:11.622Z,11.80
2022-09-03T00:09:01.121Z,11.80
2022-09-03T00:11:35.919Z,11.80
2022-09-03T00:14:24.345Z,11.90
2022-09-03T00:17:14.562Z,12.00
2022-09-03T00:19:47.693Z,11.90
2022-09-03T00:22:21.030Z,11.90
2022-09-03T00:24:50.204Z,11.80
2022-09-03T00:27:22.460Z,11.90
2022-09-03T00:30:03.654Z,12.00
2022-09-03T00:32:40.873Z,11.90
2022-09-03T00:35:16.831Z,11.90
2022-09-03T00:37:46.306Z,11.90
2022-09-03T00:40:39.917Z,11.90
2022-09-03T00:43:34.016Z,11.80
2022-09-03T00:46:06.111Z,11.80
2022-09-03T00:48:46.706Z,11.60
2022-09-03T00:51:40.555Z,11.60
2022-09-03T00:54:14.279Z,11.50
2022-09-03T00:56:41.135Z,11.40
2022-09-03T00:59:33.464Z,11.30
2022-09-03T01:02:20.033Z,11.30
2022-09-03T01:05:08.269Z,11.20
2022-09-03T01:07:49.731Z,11.20
2022-09-03T01:10:39.568Z,11.30
2022-09-03T01:13:30.663Z,11.30
2022-09-03T01:16:25.982Z,11.20
2022-09-03T01:19:13.955Z,11.20
2022-09-03T01:21:59.597Z,11.40
2022-09-03T01:24:45.182Z,11.30
2022-09-03T01:27:22.036Z,11.20
2022-09-03T01:29:57.655Z,11.10
2022-09-03T01:32:48.264Z,11.00
2022-09-03T01:35:20.807Z,11.20
2022-09-03T01:38:18.504Z,11.50
2022-09-03T01:41:20.321Z,11.50
2022-09-03T01:44:13.932Z,11.20
2022-09-03T01:46:41.671Z,11.40
2022-09-03T01:49:22.719Z,11.50
2022-09-03T01:52:16.000Z,11.70
2022-09-03T01:55:23.581Z,11.50
2022-09-03T01:57:56.834Z,11.10
2022-09-03T02:00:25.813Z,11.20
2022-09-03T02:02:53.738Z,11.10
2022-09-03T02:05:26.694Z,11.00
2022-09-03T02:08:16.925Z,10.90
2022-09-03T02:10:48.912Z,10.90
2022-09-03T02:13:19.059Z,10.90
2022-09-03T02:15:48.739Z,11.00
2022-09-03T02:18:20.180Z,10.90
2022-09-03T02:20:48.473Z,10.80
2022-09-03T02:23:16.241Z,10.80
2022-09-03T02:25:48.493Z,10.80
2022-09-03T02:28:15.753Z,10.90
2022-09-03T02:30:45.046Z,10.90
2022-09-03T02:33:12.205Z,10.80
2022-09-03T02:35:40.667Z,10.70
2022-09-03T02:38:25.702Z,10.70
2022-09-03T02:40:54.384Z,10.80
2022-09-03T02:43:42.419Z,10.90
2022-09-03T02:46:14.040Z,10.80
2022-09-03T02:48:40.903Z,10.70
2022-09-03T02:51:13.682Z,10.90
2022-09-03T02:53:42.101Z,11.10
2022-09-03T02:56:08.810Z,10.90
2022-09-03T02:58:35.733Z,10.70
2022-09-03T03:01:03.405Z,10.60
2022-09-03T03:03:30.685Z,10.70
2022-09-03T03:06:00.805Z,10.60
2022-09-03T03:08:29.004Z,10.50
2022-09-03T03:10:59.785Z,10.40
2022-09-03T03:13:27.792Z,10.40
2022-09-03T03:16:03.428Z,10.50
2022-09-03T03:18:30.308Z,10.70
2022-09-03T03:20:57.091Z,10.80
2022-09-03T03:23:24.018Z,10.60
2022-09-03T03:25:50.829Z,10.40
2022-09-03T03:28:19.163Z,10.30
2022-09-03T03:30:48.544Z,10.20
2022-09-03T03:33:15.597Z,10.20
2022-09-03T03:35:42.750Z,10.10
2022-09-03T03:38:09.745Z,10.10
2022-09-03T03:40:38.936Z,10.10
2022-09-03T03:43:05.723Z,10.10
2022-09-03T03:45:32.586Z,10.10
2022-09-03T03:47:59.528Z,10.00
2022-09-03T03:50:26.685Z,10.10
2022-09-03T03:52:53.423Z,10.00
2022-09-03T03:55:20.117Z,10.00
2022-09-03T03:57:47.011Z,10.10
2022-09-03T04:00:14.776Z,10.10
2022-09-03T04:02:41.637Z,10.00
2022-09-03T04:05:11.625Z,10.30
2022-09-03T04:07:38.427Z,10.60
2022-09-03T04:10:05.707Z,10.60
2022-09-03T04:12:33.159Z,10.50
2022-09-03T04:14:59.898Z,10.60
2022-09-03T04:17:28.286Z,10.50
2022-09-03T04:19:55.042Z,10.20
2022-09-03T04:22:21.774Z,10.10
2022-09-03T04:24:48.496Z,10.00
2022-09-03T04:27:15.240Z,10.00
2022-09-03T04:29:42.018Z,10.20
2022-09-03T04:32:27.367Z,10.10
2022-09-03T04:34:54.131Z,10.20
2022-09-03T04:37:20.918Z,10.40
2022-09-03T04:39:47.707Z,10.20
2022-09-03T04:42:14.495Z,10.20
2022-09-03T04:44:41.361Z,10.30
2022-09-03T04:47:08.159Z,10.50
2022-09-03T04:49:34.949Z,10.90
2022-09-03T04:52:03.293Z,11.00
2022-09-03T04:54:30.066Z,11.10
2022-09-03T04:56:57.104Z,11.10
2022-09-03T04:59:25.218Z,11.50
2022-09-03T05:01:56.677Z,11.30
2022-09-03T05:04:23.509Z,11.60
2022-09-03T05:06:50.248Z,11.40
2022-09-03T05:09:16.959Z,11.20
2022-09-03T05:11:44.209Z,11.20
2022-09-03T05:14:12.645Z,11.30
2022-09-03T05:16:39.491Z,11.80
2022-09-03T05:19:08.012Z,12.00
2022-09-03T05:21:38.082Z,12.20
2022-09-03T05:24:05.164Z,12.20
2022-09-03T05:26:36.513Z,12.30
2022-09-03T05:29:07.757Z,12.50
2022-09-03T05:31:39.608Z,12.70
2022-09-03T05:34:07.045Z,12.70
2022-09-03T05:36:38.177Z,12.70
2022-09-03T05:39:05.959Z,12.90
2022-09-03T05:41:34.204Z,13.10
2022-09-03T05:44:02.101Z,13.00
2022-09-03T05:46:34.228Z,13.10
2022-09-03T05:49:07.517Z,13.20
2022-09-03T05:51:36.071Z,13.10
2022-09-03T05:54:03.873Z,13.20
2022-09-03T05:56:32.611Z,13.20
2022-09-03T05:59:01.822Z,13.30
2022-09-03T06:01:33.977Z,13.50
2022-09-03T06:04:06.010Z,13.70
2022-09-03T06:06:35.645Z,13.80
2022-09-03T06:09:05.488Z,13.90
2022-09-03T06:11:34.760Z,14.30
2022-09-03T06:14:08.075Z,14.30
2022-09-03T06:16:39.435Z,14.40
2022-09-03T06:19:09.749Z,14.50
2022-09-03T06:21:40.513Z,14.60
2022-09-03T06:24:07.409Z,14.60
2022-09-03T06:26:34.140Z,14.90
2022-09-03T06:29:04.046Z,14.90
2022-09-03T06:31:31.167Z,15.00
2022-09-03T06:34:03.353Z,15.50
2022-09-03T06:36:30.988Z,15.60
2022-09-03T06:38:58.513Z,15.50
2022-09-03T06:41:31.758Z,15.40
2022-09-03T06:44:04.010Z,15.30
2022-09-03T06:46:35.505Z,15.40
2022-09-03T06:49:02.399Z,15.30
2022-09-03T06:51:31.012Z,15.50
2022-09-03T06:54:03.577Z,15.60
2022-09-03T06:56:33.983Z,15.60
2022-09-03T06:59:08.916Z,15.50
2022-09-03T07:01:37.117Z,15.40
2022-09-03T07:04:07.482Z,15.40
2022-09-03T07:06:37.286Z,15.40
2022-09-03T07:09:07.793Z,15.30
2022-09-03T07:11:36.016Z,15.30
2022-09-03T07:14:05.169Z,15.20
2022-09-03T07:16:36.874Z,15.30
2022-09-03T07:19:05.140Z,15.10
2022-09-03T07:21:34.381Z,15.10
2022-09-03T07:24:02.386Z,15.20
2022-09-03T07:26:32.022Z,15.10
2022-09-03T07:29:00.765Z,15.20
2022-09-03T07:31:33.959Z,15.10
2022-09-03T07:34:09.926Z,15.00
2022-09-03T07:36:41.593Z,14.90
2022-09-03T07:39:11.322Z,14.90
2022-09-03T07:41:38.424Z,15.00
2022-09-03T07:44:08.264Z,15.10
2022-09-03T07:46:37.314Z,15.00
2022-09-03T07:49:06.235Z,15.00
2022-09-03T07:51:39.585Z,14.90
2022-09-03T07:54:10.742Z,14.80
2022-09-03T07:56:38.757Z,14.90
2022-09-03T07:59:06.641Z,14.90
2022-09-03T08:01:34.895Z,15.00
2022-09-03T08:04:04.142Z,15.00
2022-09-03T08:06:34.203Z,15.10
2022-09-03T08:09:05.577Z,15.20
2022-09-03T08:11:36.240Z,15.20
2022-09-03T08:14:06.374Z,15.20
2022-09-03T08:16:38.443Z,15.30
2022-09-03T08:19:06.831Z,15.50
2022-09-03T08:21:33.721Z,15.50
2022-09-03T08:24:03.237Z,15.70
2022-09-03T08:26:35.805Z,15.70
2022-09-03T08:29:03.761Z,15.90
2022-09-03T08:31:38.278Z,16.10
2022-09-03T08:34:07.471Z,16.40
2022-09-03T08:36:36.742Z,16.60
2022-09-03T08:39:09.768Z,16.70
2022-09-03T08:42:06.157Z,16.80
2022-09-03T08:44:50.061Z,17.20
2022-09-03T08:47:54.241Z,17.90
2022-09-03T08:50:32.217Z,18.20
2022-09-03T08:53:09.753Z,18.80
2022-09-03T08:55:50.608Z,21.30
2022-09-03T08:58:20.068Z,20.30
2022-09-03T09:00:48.865Z,19.90
2022-09-03T09:03:36.866Z,19.70
2022-09-03T09:06:22.489Z,20.20
2022-09-03T09:09:07.774Z,22.50
2022-09-03T09:11:53.584Z,23.60
2022-09-03T09:14:37.389Z,26.40
2022-09-03T09:17:34.985Z,28.10
2022-09-03T09:20:01.737Z,27.70
2022-09-03T09:22:47.097Z,23.80
2022-09-03T09:25:19.171Z,22.40
2022-09-03T09:28:14.952Z,22.20
2022-09-03T09:30:43.492Z,21.70
2022-09-03T09:33:10.584Z,21.00
2022-09-03T09:35:41.199Z,22.30
2022-09-03T09:38:08.157Z,24.30
2022-09-03T09:40:45.063Z,25.70
2022-09-03T09:43:19.252Z,26.20
2022-09-03T09:45:51.153Z,27.20
2022-09-03T09:48:34.372Z,25.20
2022-09-03T09:51:14.162Z,25.50
2022-09-03T09:53:42.360Z,24.30
2022-09-03T09:56:09.722Z,23.30
2022-09-03T09:58:36.608Z,24.20
2022-09-03T10:01:21.940Z,27.40
2022-09-03T10:03:56.899Z,26.00
2022-09-03T10:06:44.539Z,24.10
2022-09-03T10:09:17.458Z,23.30
2022-09-03T10:11:50.264Z,23.10
2022-09-03T10:14:35.878Z,23.30
2022-09-03T10:17:16.922Z,23.80
2022-09-03T10:20:31.168Z,24.30
2022-09-03T10:23:01.551Z,24.10
2022-09-03T10:26:07.420Z,23.50
2022-09-03T10:28:41.252Z,22.80
2022-09-03T10:31:23.668Z,23.10
2022-09-03T10:34:18.713Z,23.50
2022-09-03T10:37:29.113Z,23.80
2022-09-03T10:40:21.516Z,23.10
2022-09-03T10:42:53.433Z,22.90
2022-09-03T10:45:37.666Z,22.30
2022-09-03T10:48:29.019Z,22.30
2022-09-03T10:51:13.038Z,22.60
2022-09-03T10:54:04.041Z,23.10
2022-09-03T10:56:39.721Z,23.50
2022-09-03T10:59:39.005Z,22.70
2022-09-03T11:02:25.340Z,22.70
2022-09-03T11:05:07.967Z,23.30
2022-09-03T11:08:02.822Z,23.00
2022-09-03T11:10:32.290Z,23.20
2022-09-03T11:13:12.056Z,23.80
2022-09-03T11:15:56.240Z,24.20
2022-09-03T11:18:29.205Z,24.10
2022-09-03T11:21:07.688Z,23.40
2022-09-03T11:23:42.906Z,23.30
2022-09-03T11:26:13.823Z,23.40
2022-09-03T11:28:58.807Z,23.50
2022-09-03T11:31:59.224Z,23.40
2022-09-03T11:34:33.220Z,23.70
2022-09-03T11:37:23.848Z,23.80
2022-09-03T11:40:10.175Z,23.30
2022-09-03T11:42:41.968Z,23.40
2022-09-03T11:45:27.451Z,23.10
2022-09-03T11:47:54.621Z,23.70
2022-09-03T11:50:30.786Z,23.70
2022-09-03T11:53:25.309Z,23.30
2022-09-03T11:55:54.636Z,23.00
2022-09-03T11:58:29.883Z,23.50
2022-09-03T12:00:58.962Z,23.20
2022-09-03T12:03:44.954Z,23.10
2022-09-03T12:06:11.811Z,23.40
2022-09-03T12:08:48.918Z,23.60
2022-09-03T12:11:42.109Z,23.90
2022-09-03T12:14:33.129Z,23.70
2022-09-03T12:17:28.437Z,23.50
2022-09-03T12:19:58.158Z,23.40
2022-09-03T12:22:31.215Z,23.40
2022-09-03T12:25:14.879Z,23.00
2022-09-03T12:27:45.431Z,22.80
2022-09-03T12:30:30.977Z,23.10
2022-09-03T12:33:08.339Z,23.50
2022-09-03T12:38:26.527Z,22.60
2022-09-03T12:43:45.072Z,23.20
2022-09-03T12:46:16.032Z,22.90
2022-09-03T12:52:03.124Z,22.70
2022-09-03T12:54:32.908Z,22.50
2022-09-03T12:57:00.425Z,22.50
2022-09-03T12:59:30.214Z,22.40
2022-09-03T13:02:01.895Z,22.80
2022-09-03T13:04:33.281Z,23.10
2022-09-03T13:07:14.688Z,23.30
2022-09-03T13:09:42.575Z,23.40
2022-09-03T13:12:30.649Z,23.30
2022-09-03T13:15:06.472Z,22.90
2022-09-03T13:17:52.934Z,22.70
2022-09-03T13:20:34.871Z,22.60
2022-09-03T13:23:20.322Z,22.80
2022-09-03T13:25:53.051Z,22.80
2022-09-03T13:28:39.962Z,22.70
2022-09-03T13:31:07.949Z,22.70
2022-09-03T13:33:47.602Z,22.90
2022-09-03T13:36:19.705Z,23.00
2022-09-03T13:38:59.042Z,23.10
2022-09-03T13:42:00.354Z,23.50
2022-09-03T13:44:50.161Z,23.80
2022-09-03T13:47:26.543Z,23.50
2022-09-03T13:50:23.464Z,23.10
2022-09-03T13:53:05.814Z,22.90
2022-09-03T13:55:50.664Z,22.70
2022-09-03T13:58:28.730Z,22.30
2022-09-03T14:00:58.902Z,22.40
2022-09-03T14:03:48.963Z,22.40
2022-09-03T14:06:21.896Z,22.50
2022-09-03T14:09:36.760Z,22.60
2022-09-03T14:12:30.287Z,22.50
2022-09-03T14:15:05.285Z,22.50
2022-09-03T14:17:38.910Z,22.40
2022-09-03T14:20:20.975Z,22.20
2022-09-03T14:23:22.353Z,22.10
2022-09-03T14:25:54.484Z,22.00
2022-09-03T14:28:46.539Z,21.80
2022-09-03T14:31:41.286Z,21.70
2022-09-03T14:34:37.249Z,21.50
2022-09-03T14:37:34.886Z,21.40
2022-09-03T14:40:39.630Z,21.00
2022-09-03T14:43:24.531Z,19.80
2022-09-03T14:46:05.142Z,18.30
2022-09-03T14:49:02.014Z,17.20
2022-09-03T14:52:06.987Z,16.90
2022-09-03T14:55:00.343Z,16.50
2022-09-03T14:57:43.704Z,16.80
2022-09-03T15:00:18.421Z,16.30
2022-09-03T15:03:05.209Z,16.30
2022-09-03T15:06:02.748Z,16.20
2022-09-03T15:08:49.363Z,16.30
2022-09-03T15:11:22.787Z,16.20
2022-09-03T15:14:07.644Z,16.30
2022-09-03T15:17:12.784Z,16.30
2022-09-03T15:19:58.168Z,16.20
2022-09-03T15:22:49.904Z,16.10
2022-09-03T15:25:26.710Z,16.10
2022-09-03T15:28:20.837Z,16.10
2022-09-03T15:30:56.444Z,15.80
2022-09-03T15:33:30.421Z,15.80
2022-09-03T15:36:04.942Z,15.70
2022-09-03T15:38:32.035Z,15.70
2022-09-03T15:41:06.174Z,15.60
2022-09-03T15:43:34.304Z,15.60
2022-09-03T15:46:10.614Z,15.50
2022-09-03T15:48:44.614Z,15.60
2022-09-03T15:51:22.442Z,15.60
2022-09-03T15:54:07.026Z,15.60
2022-09-03T15:56:49.317Z,15.50
2022-09-03T15:59:23.661Z,15.50
2022-09-03T16:02:02.630Z,15.50
2022-09-03T16:05:07.134Z,15.50
2022-09-03T16:07:36.573Z,15.60
2022-09-03T16:10:24.309Z,15.70
2022-09-03T16:13:14.836Z,15.60
2022-09-03T16:16:00.769Z,15.60
2022-09-03T16:18:53.941Z,15.70
2022-09-03T16:21:48.104Z,15.90
2022-09-03T16:24:34.374Z,16.20
2022-09-03T16:27:19.865Z,16.30
2022-09-03T16:30:33.647Z,16.60
2022-09-03T16:33:30.761Z,16.60
2022-09-03T16:36:06.875Z,16.80
2022-09-03T16:38:59.147Z,17.00
2022-09-03T16:41:48.287Z,17.00
2022-09-03T16:44:29.403Z,17.10
2022-09-03T16:47:02.280Z,17.20
2022-09-03T16:49:50.236Z,17.00
2022-09-03T16:52:46.029Z,16.70
2022-09-03T16:55:22.197Z,16.50
2022-09-03T16:57:59.018Z,16.40
2022-09-03T17:00:46.554Z,16.40
2022-09-03T17:03:31.919Z,16.20
2022-09-03T17:06:16.569Z,16.20
2022-09-03T17:08:58.438Z,16.10
2022-09-03T17:11:43.144Z,16.00
2022-09-03T17:14:34.482Z,15.90
2022-09-03T17:17:38.350Z,15.80
2022-09-03T17:20:14.006Z,15.80
2022-09-03T17:22:51.150Z,15.70
2022-09-03T17:25:35.597Z,15.70
2022-09-03T17:28:05.286Z,15.60
2022-09-03T17:30:56.492Z,15.60
2022-09-03T17:33:59.901Z,15.60
2022-09-03T17:36:29.810Z,15.50
2022-09-03T17:39:18.114Z,15.40
2022-09-03T17:42:00.863Z,15.30
2022-09-03T17:44:49.824Z,15.30
2022-09-03T17:47:37.268Z,15.30
2022-09-03T17:50:24.952Z,15.30
2022-09-03T17:52:57.102Z,15.20
2022-09-03T17:55:50.436Z,15.00
2022-09-03T17:58:39.766Z,15.00
2022-09-03T18:01:21.483Z,15.00
2022-09-03T18:04:15.768Z,15.00
2022-09-03T18:06:55.039Z,14.80
2022-09-03T18:09:46.102Z,14.80
2022-09-03T18:12:30.075Z,14.70
2022-09-03T18:15:05.763Z,14.70
2022-09-03T18:17:45.776Z,14.60
2022-09-03T18:20:33.416Z,14.70
2022-09-03T18:23:35.233Z,14.60
2022-09-03T18:26:32.136Z,14.50
2022-09-03T18:29:29.893Z,14.50
2022-09-03T18:32:15.531Z,14.30
2022-09-03T18:35:01.341Z,14.30
2022-09-03T18:37:47.415Z,14.30
2022-09-03T18:40:41.315Z,14.30
2022-09-03T18:43:27.191Z,14.30
2022-09-03T18:50:15.646Z,14.10
2022-09-03T18:53:15.758Z,14.00
2022-09-03T18:56:22.288Z,14.20
2022-09-03T18:59:16.566Z,13.90
2022-09-03T19:02:01.867Z,14.00
2022-09-03T19:04:47.766Z,14.00
2022-09-03T19:07:59.899Z,13.80
2022-09-03T19:11:06.255Z,13.80
2022-09-03T19:13:54.667Z,13.90
2022-09-03T19:16:59.055Z,13.90
2022-09-03T19:20:00.708Z,14.00
2022-09-03T19:22:57.683Z,13.80
2022-09-03T19:25:46.276Z,13.60
2022-09-03T19:28:35.988Z,13.70
2022-09-03T19:31:33.499Z,13.70
2022-09-03T19:34:35.378Z,13.80
2022-09-03T19:37:58.887Z,13.90
2022-09-03T19:41:11.457Z,13.70
2022-09-03T19:44:19.857Z,13.60
2022-09-03T19:47:18.573Z,13.70
2022-09-03T19:50:18.628Z,13.80
2022-09-03T19:53:20.246Z,13.90
2022-09-03T19:56:13.044Z,13.70
2022-09-03T19:59:20.526Z,13.30
2022-09-03T20:02:07.421Z,13.20
2022-09-03T20:05:09.764Z,13.10
2022-09-03T20:07:56.865Z,13.20
2022-09-03T20:10:25.282Z,13.40
2022-09-03T20:13:08.265Z,13.30
2022-09-03T20:15:43.054Z,13.30
2022-09-03T20:18:26.108Z,13.40
2022-09-03T20:21:05.779Z,13.30
2022-09-03T20:23:56.677Z,13.10
2022-09-03T20:26:32.276Z,13.20
2022-09-03T20:29:05.191Z,13.40
2022-09-03T20:31:55.927Z,13.30
2022-09-03T20:34:47.233Z,13.00
2022-09-03T20:37:42.233Z,12.90
2022-09-03T20:40:32.468Z,12.80
2022-09-03T20:43:14.203Z,12.80
2022-09-03T20:45:56.199Z,12.80
2022-09-03T20:49:17.303Z,12.90
2022-09-03T20:51:58.972Z,12.80
2022-09-03T20:54:33.650Z,12.80
2022-09-03T20:57:20.610Z,12.90
2022-09-03T21:00:07.464Z,12.90
2022-09-03T21:03:27.961Z,13.00
2022-09-03T21:06:17.830Z,13.00
2022-09-03T21:09:06.389Z,12.90
2022-09-03T21:11:42.328Z,12.90
2022-09-03T21:14:33.434Z,12.80
2022-09-03T21:17:06.321Z,12.80
2022-09-03T21:19:39.892Z,12.90
2022-09-03T21:22:35.201Z,12.90
2022-09-03T21:25:07.634Z,12.90
2022-09-03T21:27:43.305Z,12.90
2022-09-03T21:30:14.029Z,12.90
2022-09-03T21:32:55.120Z,12.90
2022-09-03T21:35:32.779Z,12.90
2022-09-03T21:38:04.885Z,12.90
2022-09-03T21:40:32.767Z,12.90
2022-09-03T21:43:15.128Z,12.90
2022-09-03T21:46:20.529Z,12.80
2022-09-03T21:48:55.917Z,12.90
2022-09-03T21:51:30.150Z,12.90
2022-09-03T21:54:20.331Z,12.90
2022-09-03T21:56:49.994Z,12.90
2022-09-03T21:59:23.394Z,12.90
2022-09-03T22:02:17.728Z,12.80
2022-09-03T22:04:44.432Z,12.80
2022-09-03T22:07:11.097Z,12.80
2022-09-03T22:09:44.666Z,12.80
2022-09-03T22:12:18.186Z,12.70
2022-09-03T22:14:51.550Z,12.60
2022-09-03T22:17:30.276Z,12.60
2022-09-03T22:19:57.373Z,12.60
2022-09-03T22:22:44.164Z,12.60
2022-09-03T22:25:14.018Z,12.70
2022-09-03T22:27:54.433Z,12.60
2022-09-03T22:30:21.577Z,12.60
2022-09-03T22:33:05.231Z,12.60
2022-09-03T22:35:53.842Z,12.60
2022-09-03T22:38:45.364Z,12.60
2022-09-03T22:41:38.030Z,12.60
2022-09-03T22:44:27.275Z,12.70
2022-09-03T22:47:21.264Z,12.70
2022-09-03T22:50:08.829Z,12.60
2022-09-03T22:52:46.201Z,12.60
2022-09-03T22:55:25.595Z,12.70
2022-09-03T22:58:01.132Z,12.60
2022-09-03T23:00:29.217Z,12.60
2022-09-03T23:03:03.407Z,12.60
2022-09-03T23:05:52.262Z,12.60
2022-09-03T23:08:39.365Z,12.60
2022-09-03T23:11:12.565Z,12.70
2022-09-03T23:13:42.678Z,12.60
2022-09-03T23:16:18.786Z,12.60
2022-09-03T23:18:49.586Z,12.60
2022-09-03T23:21:22.225Z,12.60
2022-09-03T23:24:05.581Z,12.50
2022-09-03T23:26:38.889Z,12.50
2022-09-03T23:29:12.078Z,12.50
2022-09-03T23:31:39.099Z,12.40
2022-09-03T23:34:09.842Z,12.30
2022-09-03T23:37:31.668Z,12.30
2022-09-03T23:40:12.852Z,12.30
2022-09-03T23:43:16.851Z,12.30
2022-09-03T23:45:53.100Z,12.40
2022-09-03T23:48:38.260Z,12.40
2022-09-03T23:51:10.981Z,12.40
2022-09-03T23:53:50.657Z,12.40
2022-09-03T23:56:45.477Z,12.40
2022-09-03T23:59:14.902Z,12.40
